Time;durP1;ratioP1;P1;durP2;ratioP2;P2;SDS_P1;SDS_P2;PMS_P1;PMS_P2;Temp;Humidity;BMP_temperature;BMP_pressure;BME280_temperature;BME280_humidity;BME280_pressure;Samples;Min_cycle;Max_cycle;Signal;HPM_P1;HPM_P2
2021/06/25 00:00:08;;;;;;;26.25;8.55;;;716.90;1971.20;;;;;;4914046;29;20028;-69
2021/06/25 00:02:34;;;;;;;22.23;8.23;;;716.80;1971.20;;;;;;4913860;29;20079;-69
2021/06/25 00:05:00;;;;;;;22.85;7.95;;;716.80;1971.20;;;;;;4913513;29;20024;-70
2021/06/25 00:07:26;;;;;;;28.10;9.82;;;716.80;1971.20;;;;;;4911886;29;20036;-69
2021/06/25 00:09:51;;;;;;;23.77;9.48;;;716.80;1971.20;;;;;;4914248;29;20032;-69
2021/06/25 00:12:17;;;;;;;19.85;8.25;;;716.80;1971.20;;;;;;4901394;29;20848;-69
2021/06/25 00:14:43;;;;;;;22.23;9.25;;;692.10;1971.20;;;;;;4914260;29;20024;-70
2021/06/25 00:17:09;;;;;;;29.13;9.07;;;692.00;1945.60;;;;;;4913749;29;20036;-69
2021/06/25 00:19:35;;;;;;;31.08;9.32;;;692.00;1945.60;;;;;;4909594;29;20024;-70
2021/06/25 00:22:01;;;;;;;25.60;8.05;;;692.00;1971.20;;;;;;4905742;29;20389;-70
2021/06/25 00:24:27;;;;;;;20.08;8.85;;;692.00;1971.20;;;;;;4913702;29;20089;-69
2021/06/25 00:26:52;;;;;;;23.05;8.38;;;692.00;1945.60;;;;;;4913229;29;20032;-69
2021/06/25 00:29:19;;;;;;;24.73;8.52;;;692.00;1971.20;;;;;;4913021;29;20099;-69
2021/06/25 00:31:45;;;;;;;20.95;8.95;;;692.00;1971.20;;;;;;4901974;29;20359;-69
2021/06/25 00:34:11;;;;;;;28.45;8.77;;;691.90;1971.20;;;;;;4913398;29;20039;-69
2021/06/25 00:36:37;;;;;;;27.98;9.32;;;691.90;1996.80;;;;;;4913759;29;20029;-69
2021/06/25 00:39:03;;;;;;;21.50;10.13;;;691.90;1996.80;;;;;;4913053;29;20043;-69
2021/06/25 00:41:29;;;;;;;25.42;10.05;;;691.90;1996.80;;;;;;4916278;29;20051;-69
2021/06/25 00:43:55;;;;;;;28.35;8.70;;;691.90;1996.80;;;;;;4917118;29;20381;-69
2021/06/25 00:46:21;;;;;;;22.48;8.68;;;691.90;1996.80;;;;;;4917265;29;20521;-69
2021/06/25 00:48:47;;;;;;;20.15;8.88;;;691.90;1971.20;;;;;;4916992;29;20115;-70
2021/06/25 00:51:13;;;;;;;24.10;10.75;;;691.90;1996.80;;;;;;4917205;29;20031;-69
2021/06/25 00:53:41;;;;;;;20.67;9.55;;;691.90;1996.80;;;;;;4899576;29;20044;-69
2021/06/25 00:56:09;;;;;;;21.08;8.32;;;691.90;1996.80;;;;;;4917200;29;20028;-69
2021/06/25 00:58:35;;;;;;;27.35;8.07;;;691.70;1996.80;;;;;;4916649;29;20020;-71
2021/06/25 01:01:02;;;;;;;24.80;7.97;;;691.70;2022.40;;;;;;4916637;29;20111;-69
2021/06/25 01:03:27;;;;;;;29.92;9.77;;;691.70;2022.40;;;;;;4916981;29;20369;-69
2021/06/25 01:05:53;;;;;;;23.63;9.77;;;691.70;1996.80;;;;;;4916637;29;20030;-69
2021/06/25 01:08:20;;;;;;;40.55;14.35;;;691.70;1996.80;;;;;;4917221;29;20367;-69
2021/06/25 01:10:46;;;;;;;31.48;11.68;;;691.50;1971.20;;;;;;4916600;29;20115;-69
2021/06/25 01:13:12;;;;;;;32.22;13.10;;;691.70;1996.80;;;;;;4917135;29;20183;-70
2021/06/25 01:15:38;;;;;;;20.25;10.75;;;691.50;1971.20;;;;;;4916912;29;20028;-70
2021/06/25 01:18:04;;;;;;;26.52;11.55;;;691.70;1971.20;;;;;;4903585;29;20027;-69
2021/06/25 01:20:32;;;;;;;31.92;10.20;;;691.50;1971.20;;;;;;4916331;29;20031;-69
2021/06/25 01:22:59;;;;;;;23.38;9.55;;;691.40;1996.80;;;;;;4899538;29;20020;-69
2021/06/25 01:25:30;;;;;;;19.48;8.40;;;691.70;1996.80;;;;;;4916789;29;20111;-69
2021/06/25 01:28:02;;;;;;;23.85;7.55;;;691.70;1996.80;;;;;;4916006;29;20024;-69
2021/06/25 01:30:35;;;;;;;20.40;8.32;;;691.70;1996.80;;;;;;4916644;29;20024;-69
2021/06/25 01:33:03;;;;;;;23.27;7.30;;;691.70;1996.80;;;;;;4898186;29;20367;-69
2021/06/25 01:35:29;;;;;;;26.70;8.25;;;691.50;1996.80;;;;;;4916160;29;20382;-69
2021/06/25 01:37:55;;;;;;;24.02;10.88;;;691.40;1996.80;;;;;;4915728;29;20040;-69
2021/06/25 01:40:23;;;;;;;22.52;11.30;;;691.30;1996.80;;;;;;4916004;29;20032;-69
2021/06/25 01:42:49;;;;;;;34.13;12.55;;;691.40;2022.40;;;;;;4916328;29;20100;-69
2021/06/25 01:45:23;;;;;;;32.95;16.63;;;691.50;1996.80;;;;;;4913908;29;20111;-69
2021/06/25 01:47:50;;;;;;;30.88;16.67;;;691.50;1996.80;;;;;;4905849;29;20028;-69
2021/06/25 01:50:24;;;;;;;27.30;13.98;;;691.40;1996.80;;;;;;4915799;29;20100;-69
2021/06/25 01:52:58;;;;;;;32.05;14.05;;;691.40;2022.40;;;;;;4915761;29;20112;-69
2021/06/25 01:55:28;;;;;;;23.20;10.45;;;691.40;2022.40;;;;;;4898519;29;20075;-69
2021/06/25 01:57:54;;;;;;;25.55;11.10;;;691.40;1996.80;;;;;;4915612;29;20024;-69
2021/06/25 02:00:21;;;;;;;23.02;9.75;;;691.40;1996.80;;;;;;4916022;29;20410;-70
2021/06/25 02:02:47;;;;;;;27.00;10.15;;;691.50;1971.20;;;;;;4915457;29;20444;-69
2021/06/25 02:05:15;;;;;;;25.33;9.73;;;691.40;1996.80;;;;;;4915808;29;20028;-70
2021/06/25 02:07:41;;;;;;;26.83;9.85;;;691.40;1996.80;;;;;;4915336;29;20032;-70
2021/06/25 02:10:10;;;;;;;19.90;7.90;;;691.40;1996.80;;;;;;4915943;29;20080;-70
2021/06/25 02:12:36;;;;;;;17.67;8.07;;;691.40;1996.80;;;;;;4898375;29;20454;-69
2021/06/25 02:15:07;;;;;;;21.58;8.82;;;691.40;1971.20;;;;;;4915532;29;20489;-69
2021/06/25 02:17:34;;;;;;;25.90;8.50;;;691.40;1971.20;;;;;;4915455;29;20024;-70
2021/06/25 02:19:59;;;;;;;20.77;7.47;;;691.40;1971.20;;;;;;4915568;29;20044;-69
2021/06/25 02:22:26;;;;;;;16.38;7.65;;;691.60;1996.80;;;;;;4915612;29;20497;-70
2021/06/25 02:24:52;;;;;;;22.38;8.00;;;691.70;1971.20;;;;;;4915328;29;20025;-70
2021/06/25 02:27:18;;;;;;;19.83;6.60;;;691.70;1971.20;;;;;;4915590;29;20024;-70
2021/06/25 02:29:44;;;;;;;22.17;9.60;;;691.70;1971.20;;;;;;4903466;29;20462;-70
2021/06/25 02:32:10;;;;;;;23.88;9.00;;;691.70;1996.80;;;;;;4898529;29;20055;-70
2021/06/25 02:34:35;;;;;;;26.33;7.93;;;691.80;1996.80;;;;;;4914882;29;20374;-70
2021/06/25 02:37:01;;;;;;;19.38;7.93;;;691.80;1971.20;;;;;;4897687;29;20066;-70
2021/06/25 02:39:27;;;;;;;24.83;9.40;;;691.80;1971.20;;;;;;4915090;29;20127;-69
2021/06/25 02:41:53;;;;;;;23.13;9.10;;;691.70;1971.20;;;;;;4897894;29;20584;-70
2021/06/25 02:44:19;;;;;;;23.63;7.35;;;691.70;1971.20;;;;;;4915311;29;20088;-70
2021/06/25 02:46:44;;;;;;;24.67;9.18;;;691.70;1996.80;;;;;;4884499;29;20040;-70
2021/06/25 02:49:10;;;;;;;18.65;6.75;;;691.60;1996.80;;;;;;4915587;29;20031;-70
2021/06/25 02:51:36;;;;;;;26.58;7.35;;;691.70;2022.40;;;;;;4914975;29;20062;-70
2021/06/25 02:54:03;;;;;;;25.15;8.80;;;691.70;1996.80;;;;;;4915039;29;20071;-70
2021/06/25 02:56:29;;;;;;;19.50;7.45;;;691.80;1996.80;;;;;;4914851;29;20072;-69
2021/06/25 02:58:55;;;;;;;21.10;7.85;;;691.80;1996.80;;;;;;4914974;29;20031;-69
2021/06/25 03:01:20;;;;;;;23.13;7.03;;;691.80;1996.80;;;;;;4914589;29;20067;-69
2021/06/25 03:03:46;;;;;;;23.63;8.90;;;691.80;1996.80;;;;;;4914122;29;20055;-70
2021/06/25 03:06:12;;;;;;;32.97;8.27;;;691.90;1996.80;;;;;;4915295;29;20028;-70
2021/06/25 03:08:37;;;;;;;18.45;7.70;;;691.90;1996.80;;;;;;4914527;29;20102;-70
2021/06/25 03:11:04;;;;;;;23.23;8.23;;;691.90;1996.80;;;;;;4915081;29;20043;-70
2021/06/25 03:13:29;;;;;;;26.95;9.48;;;691.90;1971.20;;;;;;4901020;29;20028;-70
2021/06/25 03:15:55;;;;;;;27.52;9.52;;;692.00;1996.80;;;;;;4914945;29;20084;-69
2021/06/25 03:18:21;;;;;;;35.88;10.38;;;691.80;1971.20;;;;;;4914207;29;20442;-69
2021/06/25 03:20:47;;;;;;;27.55;9.30;;;691.80;2022.40;;;;;;4914823;29;20028;-69
2021/06/25 03:23:14;;;;;;;29.95;10.10;;;691.90;1996.80;;;;;;4916141;29;20070;-70
2021/06/25 03:25:39;;;;;;;23.10;7.25;;;691.80;1996.80;;;;;;4926562;29;20028;-70
2021/06/25 03:28:05;;;;;;;22.63;8.32;;;691.90;1996.80;;;;;;4897483;29;20032;-77
2021/06/25 03:30:35;;;;;;;21.02;8.48;;;691.90;1996.80;;;;;;4903245;29;20058;-71
2021/06/25 03:33:01;;;;;;;26.13;8.35;;;691.90;1996.80;;;;;;4904150;29;20131;-71
2021/06/25 03:35:28;;;;;;;25.88;8.98;;;691.90;1996.80;;;;;;4910239;29;20104;-71
2021/06/25 03:37:56;;;;;;;22.50;8.13;;;691.90;1996.80;;;;;;4909518;29;20040;-71
2021/06/25 03:40:21;;;;;;;26.55;8.77;;;691.70;1996.80;;;;;;4911292;29;20029;-71
2021/06/25 03:42:47;;;;;;;27.35;8.23;;;691.80;2022.40;;;;;;4908251;29;20024;-71
2021/06/25 03:45:14;;;;;;;26.65;9.43;;;691.90;1996.80;;;;;;4914030;29;20028;-71
2021/06/25 03:47:41;;;;;;;28.38;8.80;;;692.00;1996.80;;;;;;4897150;29;20020;-71
2021/06/25 03:50:08;;;;;;;23.27;7.82;;;692.00;1996.80;;;;;;4901479;29;20107;-71
2021/06/25 03:52:34;;;;;;;25.98;8.45;;;716.90;1996.80;;;;;;4885576;29;20026;-71
2021/06/25 03:55:00;;;;;;;26.98;9.90;;;716.90;1996.80;;;;;;4907871;29;20103;-71
2021/06/25 03:57:25;;;;;;;26.50;9.13;;;717.00;1996.80;;;;;;4913951;29;20422;-71
2021/06/25 03:59:51;;;;;;;34.53;8.70;;;717.30;1971.20;;;;;;4904349;29;20083;-71
2021/06/25 04:02:17;;;;;;;26.13;10.43;;;717.40;1971.20;;;;;;4888950;29;20020;-71
2021/06/25 04:04:43;;;;;;;30.95;11.38;;;717.40;1971.20;;;;;;4898144;29;20481;-70
2021/06/25 04:07:09;;;;;;;26.20;9.23;;;717.60;1971.20;;;;;;4902304;29;20060;-71
2021/06/25 04:09:35;;;;;;;25.67;11.32;;;717.70;1945.60;;;;;;4884452;29;20419;-71
2021/06/25 04:12:02;;;;;;;28.95;9.90;;;742.40;1971.20;;;;;;4908509;29;20453;-71
2021/06/25 04:14:27;;;;;;;28.35;9.93;;;742.50;1971.20;;;;;;4901113;29;20033;-71
2021/06/25 04:16:53;;;;;;;23.80;8.68;;;742.60;1971.20;;;;;;4907566;29;20083;-71
2021/06/25 04:19:19;;;;;;;37.85;10.05;;;742.70;1971.20;;;;;;4905570;29;20033;-71
2021/06/25 04:21:45;;;;;;;35.33;12.07;;;742.70;1971.20;;;;;;4901768;29;20028;-71
2021/06/25 04:24:11;;;;;;;34.63;9.75;;;742.70;1971.20;;;;;;4889551;29;20032;-71
2021/06/25 04:26:38;;;;;;;23.05;9.57;;;742.80;1971.20;;;;;;4917639;29;20032;-71
2021/06/25 04:29:09;;;;;;;36.75;12.07;;;742.90;1971.20;;;;;;4917349;29;20031;-72
2021/06/25 04:31:35;;;;;;;28.23;13.32;;;742.90;1971.20;;;;;;4901272;29;20024;-72
2021/06/25 04:34:01;;;;;;;26.95;13.07;;;742.90;1971.20;;;;;;4917973;29;20093;-72
2021/06/25 04:36:27;;;;;;;41.72;12.02;;;743.00;1971.20;;;;;;4917228;29;20160;-72
2021/06/25 04:38:53;;;;;;;24.35;10.02;;;743.10;1971.20;;;;;;4909254;29;20569;-72
2021/06/25 04:41:19;;;;;;;31.27;10.85;;;743.10;1971.20;;;;;;4916502;29;20493;-72
2021/06/25 04:43:45;;;;;;;28.63;11.27;;;742.90;1996.80;;;;;;4910143;29;20024;-72
2021/06/25 04:46:12;;;;;;;27.15;9.02;;;743.00;1996.80;;;;;;4913878;29;20028;-72
2021/06/25 04:48:38;;;;;;;29.08;9.35;;;743.00;1996.80;;;;;;4907455;29;20027;-72
2021/06/25 04:51:03;;;;;;;30.75;10.60;;;743.00;1996.80;;;;;;4909401;29;20040;-72
2021/06/25 04:53:29;;;;;;;31.42;9.00;;;742.90;1996.80;;;;;;4917559;29;20469;-72
2021/06/25 04:55:55;;;;;;;36.67;12.10;;;742.90;1996.80;;;;;;4917355;29;20108;-72
2021/06/25 04:58:26;;;;;;;24.15;9.55;;;743.10;1996.80;;;;;;4909681;29;20029;-72
2021/06/25 05:00:52;;;;;;;27.13;9.75;;;743.20;1996.80;;;;;;4910838;29;20431;-72
2021/06/25 05:03:18;;;;;;;33.63;10.63;;;743.20;1971.20;;;;;;4907060;29;20033;-72
2021/06/25 05:05:44;;;;;;;33.92;10.68;;;743.20;1996.80;;;;;;4908228;29;20028;-72
2021/06/25 05:08:10;;;;;;;37.00;10.18;;;743.20;1996.80;;;;;;4911681;29;20032;-72
2021/06/25 05:10:36;;;;;;;30.90;9.40;;;768.00;1996.80;;;;;;4914370;29;20088;-72
2021/06/25 05:13:01;;;;;;;37.72;11.50;;;743.20;2022.40;;;;;;4896956;29;20044;-72
2021/06/25 05:15:28;;;;;;;28.42;10.02;;;743.20;2022.40;;;;;;4904972;29;20057;-72
2021/06/25 05:17:53;;;;;;;31.65;13.07;;;743.20;2022.40;;;;;;4912180;29;20024;-72
2021/06/25 05:20:20;;;;;;;28.95;10.02;;;768.00;2022.40;;;;;;4913839;29;20083;-73
2021/06/25 05:22:46;;;;;;;30.73;11.15;;;743.30;2022.40;;;;;;4905698;29;20088;-73
2021/06/25 05:25:13;;;;;;;28.10;11.68;;;743.20;2022.40;;;;;;4908317;29;20021;-73
2021/06/25 05:27:39;;;;;;;28.48;11.77;;;743.30;2048.00;;;;;;4911248;29;20027;-73
2021/06/25 05:30:06;;;;;;;38.45;11.82;;;768.10;2022.40;;;;;;4914894;29;20705;-73
2021/06/25 05:32:33;;;;;;;28.48;11.65;;;768.20;2022.40;;;;;;4916666;29;20087;-73
2021/06/25 05:35:00;;;;;;;34.10;11.70;;;768.20;1996.80;;;;;;4916428;29;20035;-73
2021/06/25 05:37:25;;;;;;;31.58;9.60;;;768.50;1996.80;;;;;;4905363;29;20033;-72
2021/06/25 05:39:51;;;;;;;31.27;11.07;;;768.60;1971.20;;;;;;4894247;29;20047;-73
2021/06/25 05:42:17;;;;;;;30.00;10.45;;;768.70;1971.20;;;;;;4913611;29;20028;-72
2021/06/25 05:44:43;;;;;;;28.63;10.02;;;793.80;1996.80;;;;;;4914150;29;20462;-71
2021/06/25 05:47:08;;;;;;;35.30;11.38;;;793.80;1996.80;;;;;;4905896;29;20024;-72
2021/06/25 05:49:34;;;;;;;27.50;11.85;;;794.10;1971.20;;;;;;4916152;29;20501;-72
2021/06/25 05:52:01;;;;;;;27.33;12.65;;;794.30;1945.60;;;;;;4916661;29;20020;-72
2021/06/25 05:54:26;;;;;;;31.77;11.63;;;794.40;1920.00;;;;;;4916103;29;20505;-72
2021/06/25 05:56:53;;;;;;;32.83;11.50;;;819.30;1920.00;;;;;;4916316;29;20052;-72
2021/06/25 05:59:45;;;;;;;27.90;9.85;;;819.40;1894.40;;;;;;4916327;29;20024;-72
2021/06/25 06:02:11;;;;;;;30.80;11.32;;;819.50;1894.40;;;;;;4915091;29;20063;-72
2021/06/25 06:04:36;;;;;;;26.42;9.63;;;819.90;1868.80;;;;;;4916708;29;20433;-72
2021/06/25 06:07:03;;;;;;;29.73;10.35;;;819.80;1868.80;;;;;;4887629;29;20595;-73
2021/06/25 06:09:29;;;;;;;33.97;12.43;;;820.00;1868.80;;;;;;4915746;29;20024;-73
2021/06/25 06:11:54;;;;;;;26.52;10.38;;;845.00;1843.20;;;;;;4889329;29;20474;-73
2021/06/25 06:14:20;;;;;;;36.33;9.13;;;844.80;1868.80;;;;;;4912418;29;20035;-73
2021/06/25 06:16:46;;;;;;;37.35;11.35;;;844.90;1868.80;;;;;;4916000;29;20081;-73
2021/06/25 06:19:12;;;;;;;30.00;10.20;;;844.80;1868.80;;;;;;4898758;29;20043;-73
2021/06/25 06:32:50;;;;;;;47.30;12.57;;;870.50;1817.60;;;;;;4909928;29;20087;-73
2021/06/25 06:35:16;;;;;;;35.60;12.85;;;870.90;1766.40;;;;;;4903989;29;20021;-73
2021/06/25 06:37:48;;;;;;;30.15;10.90;;;870.90;1766.40;;;;;;4914709;29;20490;-73
2021/06/25 06:40:18;;;;;;;33.65;13.25;;;870.60;1792.00;;;;;;4922367;29;20115;-73
2021/06/25 06:42:45;;;;;;;45.17;13.30;;;871.10;1766.40;;;;;;4909029;29;20031;-73
2021/06/25 06:45:11;;;;;;;32.92;10.82;;;871.30;1740.80;;;;;;4914412;29;20047;-73
2021/06/25 06:47:37;;;;;;;32.20;10.55;;;871.10;1740.80;;;;;;4903038;29;20080;-73
2021/06/25 06:50:03;;;;;;;25.75;10.18;;;870.60;1766.40;;;;;;4915580;29;20377;-73
2021/06/25 06:52:28;;;;;;;32.83;10.25;;;870.50;1766.40;;;;;;4897570;29;20032;-73
2021/06/25 06:54:54;;;;;;;36.50;10.98;;;870.90;1766.40;;;;;;4898176;29;20680;-72
2021/06/25 06:57:20;;;;;;;29.80;10.50;;;871.20;1740.80;;;;;;4914902;29;20036;-73
2021/06/25 06:59:45;;;;;;;35.58;12.13;;;896.30;1689.60;;;;;;4928789;29;20092;-73
2021/06/25 07:02:11;;;;;;;31.30;11.45;;;896.50;1689.60;;;;;;4920947;29;20028;-73
2021/06/25 07:04:37;;;;;;;28.48;10.60;;;896.30;1664.00;;;;;;4919109;29;20037;-73
2021/06/25 07:07:02;;;;;;;28.98;10.80;;;896.60;1638.40;;;;;;4908104;29;20478;-73
2021/06/25 07:09:35;;;;;;;30.42;11.40;;;921.70;1638.40;;;;;;5067901;28;20384;-72
2021/06/25 07:12:01;;;;;;;42.75;13.80;;;921.60;1664.00;;;;;;5063312;28;20025;-72
2021/06/25 07:14:27;;;;;;;27.80;11.07;;;896.60;1638.40;;;;;;5058302;28;20039;-73
2021/06/25 07:16:53;;;;;;;33.63;10.65;;;921.60;1638.40;;;;;;5060963;28;20100;-73
2021/06/25 07:19:19;;;;;;;27.20;9.60;;;921.80;1612.80;;;;;;5046687;28;20036;-73
2021/06/25 07:21:44;;;;;;;20.50;7.75;;;896.80;1561.60;;;;;;5047131;28;20029;-73
2021/06/25 07:24:10;;;;;;;23.67;9.18;;;921.60;1561.60;;;;;;5047542;28;20017;-73
2021/06/25 07:26:36;;;;;;;34.20;10.23;;;922.20;1561.60;;;;;;5048203;28;20388;-73
2021/06/25 07:29:02;;;;;;;22.05;8.35;;;922.40;1536.00;;;;;;5047660;28;20017;-73
2021/06/25 07:31:28;;;;;;;33.60;9.63;;;922.40;1510.40;;;;;;5048094;28;20056;-73
2021/06/25 07:33:53;;;;;;;26.45;8.32;;;922.50;1510.40;;;;;;5046402;28;20030;-73
2021/06/25 07:36:20;;;;;;;32.72;10.77;;;947.60;1510.40;;;;;;5047296;28;20100;-73
2021/06/25 07:38:46;;;;;;;28.00;8.68;;;947.40;1510.40;;;;;;5046398;28;20025;-73
2021/06/25 07:41:12;;;;;;;21.25;8.43;;;947.90;1510.40;;;;;;5047593;28;20025;-72
2021/06/25 07:43:37;;;;;;;21.33;8.15;;;947.80;1484.80;;;;;;5047707;28;20475;-73
2021/06/25 07:46:03;;;;;;;24.13;8.77;;;948.00;1459.20;;;;;;5045980;28;20033;-72
2021/06/25 07:48:29;;;;;;;23.10;8.18;;;947.50;1459.20;;;;;;5060709;28;20033;-73
2021/06/25 07:50:55;;;;;;;19.35;8.52;;;947.20;1484.80;;;;;;5067300;28;20459;-72
2021/06/25 07:53:20;;;;;;;36.28;10.20;;;922.00;1510.40;;;;;;5061416;28;20021;-72
2021/06/25 07:55:46;;;;;;;29.23;9.73;;;922.40;1510.40;;;;;;5066626;28;20107;-72
2021/06/25 07:58:16;;;;;;;29.70;9.68;;;947.60;1484.80;;;;;;5065980;28;20024;-72
2021/06/25 08:00:43;;;;;;;21.70;8.32;;;972.80;1459.20;;;;;;5067493;28;20360;-73
2021/06/25 08:03:09;;;;;;;17.33;7.88;;;973.20;1459.20;;;;;;5057483;28;20079;-73
2021/06/25 08:05:35;;;;;;;22.33;8.27;;;973.10;1408.00;;;;;;5054671;28;20051;-73
2021/06/25 08:08:01;;;;;;;26.15;7.63;;;973.10;1408.00;;;;;;5048773;28;20539;-72
2021/06/25 08:10:27;;;;;;;25.80;8.88;;;973.30;1382.40;;;;;;5051512;28;21762;-73
2021/06/25 08:12:52;;;;;;;21.25;8.82;;;973.70;1382.40;;;;;;5051515;28;20028;-73
2021/06/25 08:15:18;;;;;;;23.52;7.93;;;973.30;1408.00;;;;;;5057118;28;20091;-72
2021/06/25 08:17:44;;;;;;;29.73;8.60;;;973.20;1408.00;;;;;;5051456;28;20040;-73
2021/06/25 08:20:10;;;;;;;24.02;9.20;;;948.10;1408.00;;;;;;5041688;28;20025;-73
2021/06/25 08:22:36;;;;;;;25.15;9.50;;;973.10;1433.60;;;;;;5038344;28;20021;-73
2021/06/25 08:25:03;;;;;;;24.13;8.65;;;973.00;1408.00;;;;;;5038513;28;20048;-73
2021/06/25 08:27:28;;;;;;;24.25;7.53;;;973.20;1382.40;;;;;;5042240;28;20025;-73
2021/06/25 08:29:57;;;;;;;21.00;8.15;;;973.30;1356.80;;;;;;5044077;28;20071;-73
2021/06/25 08:32:23;;;;;;;27.77;9.73;;;998.40;1382.40;;;;;;5037625;28;20047;-73
2021/06/25 08:34:49;;;;;;;20.60;8.45;;;998.70;1356.80;;;;;;5040746;28;20033;-73
2021/06/25 08:37:16;;;;;;;23.63;8.13;;;1024.00;1305.60;;;;;;5037983;28;20024;-73
2021/06/25 08:39:42;;;;;;;22.40;7.50;;;999.10;1331.20;;;;;;5032504;28;20382;-74
2021/06/25 08:42:08;;;;;;;21.88;8.05;;;999.30;1305.60;;;;;;5041282;28;20021;-74
2021/06/25 08:44:38;;;;;;;21.00;8.27;;;1024.60;1280.00;;;;;;5041113;28;20499;-73
2021/06/25 08:47:09;;;;;;;22.35;9.18;;;1024.90;1254.40;;;;;;5039186;28;20133;-73
2021/06/25 08:49:36;;;;;;;21.33;8.07;;;1024.70;1280.00;;;;;;5043272;28;20033;-74
2021/06/25 08:52:05;;;;;;;27.17;8.55;;;998.90;1331.20;;;;;;5038701;28;20071;-74
2021/06/25 08:54:33;;;;;;;28.92;8.55;;;998.90;1331.20;;;;;;5044920;28;20052;-73
2021/06/25 08:57:03;;;;;;;22.65;8.75;;;998.90;1331.20;;;;;;5046883;28;20029;-74
2021/06/25 08:59:28;;;;;;;21.33;7.85;;;999.10;1331.20;;;;;;5041397;28;20079;-73
2021/06/25 09:01:55;;;;;;;28.70;10.98;;;999.10;1331.20;;;;;;5043269;28;20491;-73
2021/06/25 09:04:38;;;;;;;19.98;8.15;;;998.90;1305.60;;;;;;5040291;28;20036;-74
2021/06/25 09:07:07;;;;;;;17.73;7.75;;;998.70;1305.60;;;;;;5040477;28;20075;-73
2021/06/25 09:09:47;;;;;;;22.92;7.20;;;998.90;1305.60;;;;;;5038295;28;20855;-73
2021/06/25 09:12:22;;;;;;;19.27;8.10;;;1024.00;1254.40;;;;;;5048774;28;20072;-73
2021/06/25 09:15:11;;;;;;;21.88;8.35;;;1024.40;1228.80;;;;;;5043662;28;20047;-73
2021/06/25 09:17:57;;;;;;;24.92;8.60;;;1024.40;1254.40;;;;;;5044294;28;20033;-73
2021/06/25 09:20:45;;;;;;;19.60;7.50;;;1024.50;1228.80;;;;;;5025648;28;20367;-73
2021/06/25 09:23:14;;;;;;;27.73;9.05;;;1049.60;1254.40;;;;;;5041951;28;20070;-74
2021/06/25 09:26:00;;;;;;;27.77;8.73;;;1050.10;1228.80;;;;;;5041384;28;20021;-74
2021/06/25 09:28:34;;;;;;;22.60;8.73;;;1075.20;1203.20;;;;;;5042586;28;20030;-74
2021/06/25 09:31:01;;;;;;;22.88;8.15;;;1050.20;1203.20;;;;;;5037580;28;20017;-72
2021/06/25 09:33:26;;;;;;;24.15;8.77;;;1075.20;1203.20;;;;;;5044121;28;20072;-74
2021/06/25 09:35:54;;;;;;;35.20;10.13;;;1050.40;1177.60;;;;;;5044495;28;20048;-73
2021/06/25 09:38:34;;;;;;;28.20;10.98;;;1050.40;1177.60;;;;;;5043360;28;20428;-74
2021/06/25 09:41:00;;;;;;;33.00;11.30;;;1075.50;1152.00;;;;;;5041683;28;20025;-74
2021/06/25 09:43:35;;;;;;;27.65;8.88;;;1050.40;1177.60;;;;;;5039344;28;20033;-74
2021/06/25 09:46:04;;;;;;;27.08;9.80;;;1050.40;1177.60;;;;;;5036930;28;20079;-74
2021/06/25 09:48:52;;;;;;;21.42;8.52;;;1075.20;1152.00;;;;;;5040044;28;20037;-74
2021/06/25 09:51:19;;;;;;;20.40;8.75;;;1075.50;1152.00;;;;;;5039938;28;20029;-74
2021/06/25 09:54:09;;;;;;;30.63;10.27;;;1075.40;1126.40;;;;;;5042416;28;20075;-73
2021/06/25 09:56:46;;;;;;;22.60;8.02;;;1075.40;1152.00;;;;;;5035643;28;20036;-73
2021/06/25 10:01:50;;;;;;;28.65;8.98;;;1075.40;1126.40;;;;;;5015279;28;20032;-73
2021/06/25 10:04:16;;;;;;;29.08;8.20;;;1075.40;1126.40;;;;;;5015197;28;20029;-73
2021/06/25 10:06:42;;;;;;;25.35;8.45;;;1075.40;1126.40;;;;;;5019811;28;20029;-72
2021/06/25 10:09:08;;;;;;;24.55;8.25;;;1076.00;1075.20;;;;;;5034030;28;20400;-73
2021/06/25 10:11:34;;;;;;;23.65;8.02;;;1075.50;1100.80;;;;;;5022878;28;20477;-73
2021/06/25 10:14:02;;;;;;;30.08;8.43;;;1075.90;1075.20;;;;;;5016899;28;20030;-73
2021/06/25 10:16:28;;;;;;;19.83;8.82;;;1100.80;1075.20;;;;;;5021174;28;20104;-73
2021/06/25 10:18:56;;;;;;;23.38;8.30;;;1101.40;1049.60;;;;;;5055093;28;20041;-73
2021/06/25 10:21:28;;;;;;;22.00;9.77;;;1126.40;1075.20;;;;;;5016467;28;20036;-73
2021/06/25 10:23:56;;;;;;;18.13;7.40;;;1127.00;1075.20;;;;;;5021767;28;20021;-73
2021/06/25 10:26:23;;;;;;;27.98;9.32;;;1101.40;1049.60;;;;;;5022479;28;20033;-73
2021/06/25 10:28:51;;;;;;;23.98;8.98;;;1126.50;1049.60;;;;;;5027598;28;20028;-73
2021/06/25 10:31:22;;;;;;;24.45;9.32;;;1126.40;1049.60;;;;;;5030278;28;20022;-73
2021/06/25 10:33:50;;;;;;;23.27;8.55;;;1101.60;1024.00;;;;;;5025292;28;20030;-74
2021/06/25 10:36:19;;;;;;;20.92;8.32;;;1127.00;1049.60;;;;;;5023163;28;20040;-73
2021/06/25 10:38:46;;;;;;;27.08;8.20;;;1126.60;1024.00;;;;;;5020889;28;20037;-73
2021/06/25 10:41:14;;;;;;;24.45;8.68;;;1126.70;1024.00;;;;;;5018194;28;20093;-74
2021/06/25 10:43:52;;;;;;;22.42;9.13;;;1126.40;1049.60;;;;;;5020949;28;20109;-73
2021/06/25 10:46:38;;;;;;;21.77;8.85;;;1126.50;1024.00;;;;;;5015947;28;20026;-74
2021/06/25 10:49:14;;;;;;;23.15;7.65;;;1127.20;998.40;;;;;;5018121;28;20121;-75
2021/06/25 10:51:42;;;;;;;19.30;6.63;;;1152.60;998.40;;;;;;5025776;28;20053;-73
2021/06/25 10:54:16;;;;;;;19.98;7.47;;;1126.90;1024.00;;;;;;5037374;28;20033;-74
2021/06/25 10:56:47;;;;;;;24.92;8.68;;;1126.50;1024.00;;;;;;5017920;28;20025;-73
2021/06/25 10:59:28;;;;;;;21.92;7.18;;;1126.50;1024.00;;;;;;5020608;28;20026;-73
2021/06/25 11:02:03;;;;;;;20.17;8.23;;;1126.70;1024.00;;;;;;5018453;28;20025;-74
2021/06/25 11:04:35;;;;;;;21.85;8.98;;;1126.70;1024.00;;;;;;5019440;28;20033;-74
2021/06/25 11:07:05;;;;;;;20.42;7.57;;;1126.50;1024.00;;;;;;5025900;28;20064;-74
2021/06/25 11:09:52;;;;;;;21.23;9.00;;;1126.70;1024.00;;;;;;5016637;28;20112;-74
2021/06/25 11:12:21;;;;;;;22.92;8.85;;;1126.70;1024.00;;;;;;5017380;28;20442;-73
2021/06/25 11:14:53;;;;;;;26.83;8.07;;;1126.50;998.40;;;;;;5022225;28;20079;-73
2021/06/25 11:17:48;;;;;;;31.20;8.35;;;1126.70;1024.00;;;;;;5038666;28;20697;-73
2021/06/25 11:20:22;;;;;;;27.83;9.30;;;1127.10;998.40;;;;;;5024531;28;20390;-74
2021/06/25 11:22:52;;;;;;;21.40;8.07;;;1126.40;1024.00;;;;;;5019679;28;20030;-74
2021/06/25 11:25:41;;;;;;;24.85;9.25;;;1127.00;1024.00;;;;;;5019531;28;20788;-74
2021/06/25 11:28:18;;;;;;;35.88;11.00;;;1152.30;972.80;;;;;;5022300;28;20384;-73
2021/06/25 11:31:01;;;;;;;25.05;8.65;;;1152.70;972.80;;;;;;5024882;28;20041;-74
2021/06/25 11:33:39;;;;;;;24.98;9.48;;;1177.70;972.80;;;;;;5020442;28;20369;-73
2021/06/25 11:36:16;;;;;;;21.42;7.88;;;1152.30;972.80;;;;;;5021439;28;20021;-73
2021/06/25 11:39:07;;;;;;;19.73;9.15;;;1152.00;972.80;;;;;;5025200;28;20416;-73
2021/06/25 11:41:45;;;;;;;22.33;8.13;;;1152.50;972.80;;;;;;5022381;28;20030;-74
2021/06/25 11:44:13;;;;;;;21.35;8.88;;;1152.30;998.40;;;;;;5023580;28;20358;-74
2021/06/25 11:46:52;;;;;;;22.00;9.15;;;1152.70;998.40;;;;;;5021616;28;20048;-74
2021/06/25 11:49:18;;;;;;;17.88;7.00;;;1152.70;972.80;;;;;;5022634;28;20041;-74
2021/06/25 11:51:45;;;;;;;22.48;8.60;;;1152.30;998.40;;;;;;5024696;28;20504;-74
2021/06/25 11:54:12;;;;;;;30.27;9.73;;;1152.10;998.40;;;;;;5042528;28;20109;-74
2021/06/25 11:56:43;;;;;;;22.48;9.38;;;1177.60;972.80;;;;;;5032462;28;20028;-74
2021/06/25 11:59:10;;;;;;;17.08;8.40;;;1203.20;947.20;;;;;;5034085;28;20095;-74
2021/06/25 12:01:55;;;;;;;23.02;8.50;;;1203.30;921.60;;;;;;5064588;28;20399;-75
2021/06/25 12:04:53;;;;;;;34.30;9.60;;;1177.90;947.20;;;;;;5029837;28;20113;-74
2021/06/25 12:07:20;;;;;;;29.63;10.43;;;1203.20;947.20;;;;;;5046422;28;20033;-74
2021/06/25 12:09:51;;;;;;;27.35;8.88;;;1204.00;921.60;;;;;;5050839;28;20024;-74
2021/06/25 12:12:22;;;;;;;19.73;7.35;;;1203.30;947.20;;;;;;5048571;28;20031;-74
2021/06/25 12:14:51;;;;;;;22.00;11.63;;;1178.10;947.20;;;;;;5044184;28;20028;-74
2021/06/25 12:17:17;;;;;;;27.80;10.13;;;1203.30;947.20;;;;;;5030770;28;20028;-74
2021/06/25 12:20:06;;;;;;;22.45;7.75;;;1152.30;972.80;;;;;;5045805;28;20480;-74
2021/06/25 12:22:48;;;;;;;22.90;8.20;;;1152.30;947.20;;;;;;5050428;28;20534;-74